sensor_id;sensor_type;location;lat;lon;timestamp;P1;durP1;ratioP1;P2;durP2;ratioP2
29200;SDS011;16244;51.956;12.980;2023-12-29T00:00:12;5.20;;;0.77;;
29200;SDS011;16244;51.956;12.980;2023-12-29T00:02:40;0.50;;;0.50;;
29200;SDS011;16244;51.956;12.980;2023-12-29T00:05:08;0.60;;;0.60;;
29200;SDS011;16244;51.956;12.980;2023-12-29T00:07:36;1.07;;;0.50;;
29200;SDS011;16244;51.956;12.980;2023-12-29T00:10:05;0.93;;;0.50;;
29200;SDS011;16244;51.956;12.980;2023-12-29T00:12:33;0.40;;;0.40;;
29200;SDS011;16244;51.956;12.980;2023-12-29T00:15:04;0.67;;;0.50;;
29200;SDS011;16244;51.956;12.980;2023-12-29T00:17:33;1.67;;;0.60;;
29200;SDS011;16244;51.956;12.980;2023-12-29T00:20:04;0.50;;;0.50;;
29200;SDS011;16244;51.956;12.980;2023-12-29T00:22:33;5.30;;;0.80;;
29200;SDS011;16244;51.956;12.980;2023-12-29T00:25:02;0.57;;;0.57;;
29200;SDS011;16244;51.956;12.980;2023-12-29T00:27:31;0.50;;;0.50;;
29200;SDS011;16244;51.956;12.980;2023-12-29T00:30:03;1.23;;;0.67;;
29200;SDS011;16244;51.956;12.980;2023-12-29T00:32:33;0.50;;;0.50;;
29200;SDS011;16244;51.956;12.980;2023-12-29T00:35:03;0.40;;;0.40;;
29200;SDS011;16244;51.956;12.980;2023-12-29T00:37:31;1.37;;;0.70;;
29200;SDS011;16244;51.956;12.980;2023-12-29T00:40:00;0.43;;;0.43;;
29200;SDS011;16244;51.956;12.980;2023-12-29T00:42:28;0.50;;;0.50;;
29200;SDS011;16244;51.956;12.980;2023-12-29T00:44:56;2.17;;;0.60;;
29200;SDS011;16244;51.956;12.980;2023-12-29T00:47:29;1.33;;;0.70;;
29200;SDS011;16244;51.956;12.980;2023-12-29T00:50:00;0.47;;;0.47;;
29200;SDS011;16244;51.956;12.980;2023-12-29T00:52:29;0.40;;;0.40;;
29200;SDS011;16244;51.956;12.980;2023-12-29T00:54:57;0.50;;;0.50;;
29200;SDS011;16244;51.956;12.980;2023-12-29T00:57:25;0.70;;;0.70;;
29200;SDS011;16244;51.956;12.980;2023-12-29T00:59:56;0.40;;;0.40;;
29200;SDS011;16244;51.956;12.980;2023-12-29T01:02:26;0.50;;;0.50;;
29200;SDS011;16244;51.956;12.980;2023-12-29T01:05:00;0.47;;;0.47;;
29200;SDS011;16244;51.956;12.980;2023-12-29T01:07:28;1.80;;;0.50;;
29200;SDS011;16244;51.956;12.980;2023-12-29T01:09:55;0.97;;;0.50;;
29200;SDS011;16244;51.956;12.980;2023-12-29T01:12:24;0.40;;;0.40;;
29200;SDS011;16244;51.956;12.980;2023-12-29T01:14:53;1.33;;;0.47;;
29200;SDS011;16244;51.956;12.980;2023-12-29T01:17:26;0.60;;;0.60;;
29200;SDS011;16244;51.956;12.980;2023-12-29T01:19:57;0.47;;;0.47;;
29200;SDS011;16244;51.956;12.980;2023-12-29T01:22:33;0.60;;;0.60;;
29200;SDS011;16244;51.956;12.980;2023-12-29T01:25:02;0.67;;;0.40;;
29200;SDS011;16244;51.956;12.980;2023-12-29T01:27:30;0.50;;;0.50;;
29200;SDS011;16244;51.956;12.980;2023-12-29T01:29:59;0.63;;;0.63;;
29200;SDS011;16244;51.956;12.980;2023-12-29T01:32:26;0.50;;;0.50;;
29200;SDS011;16244;51.956;12.980;2023-12-29T01:34:54;0.50;;;0.50;;
29200;SDS011;16244;51.956;12.980;2023-12-29T01:37:25;0.50;;;0.40;;
29200;SDS011;16244;51.956;12.980;2023-12-29T01:39:55;0.40;;;0.40;;
29200;SDS011;16244;51.956;12.980;2023-12-29T01:42:23;0.50;;;0.50;;
29200;SDS011;16244;51.956;12.980;2023-12-29T01:44:51;0.43;;;0.43;;
29200;SDS011;16244;51.956;12.980;2023-12-29T01:47:20;0.57;;;0.57;;
29200;SDS011;16244;51.956;12.980;2023-12-29T01:49:49;0.50;;;0.50;;
29200;SDS011;16244;51.956;12.980;2023-12-29T01:52:20;0.47;;;0.47;;
29200;SDS011;16244;51.956;12.980;2023-12-29T01:54:51;4.90;;;0.70;;
29200;SDS011;16244;51.956;12.980;2023-12-29T01:57:22;3.70;;;0.60;;
29200;SDS011;16244;51.956;12.980;2023-12-29T01:59:50;0.60;;;0.57;;
29200;SDS011;16244;51.956;12.980;2023-12-29T02:02:20;0.67;;;0.67;;
29200;SDS011;16244;51.956;12.980;2023-12-29T02:04:48;0.50;;;0.50;;
29200;SDS011;16244;51.956;12.980;2023-12-29T02:07:19;0.60;;;0.60;;
29200;SDS011;16244;51.956;12.980;2023-12-29T02:09:47;0.50;;;0.50;;
29200;SDS011;16244;51.956;12.980;2023-12-29T02:12:17;0.50;;;0.50;;
29200;SDS011;16244;51.956;12.980;2023-12-29T02:14:47;0.47;;;0.47;;
29200;SDS011;16244;51.956;12.980;2023-12-29T02:17:15;1.03;;;0.50;;
29200;SDS011;16244;51.956;12.980;2023-12-29T02:19:49;0.50;;;0.50;;
29200;SDS011;16244;51.956;12.980;2023-12-29T02:22:18;0.50;;;0.50;;
29200;SDS011;16244;51.956;12.980;2023-12-29T02:24:47;0.43;;;0.43;;
29200;SDS011;16244;51.956;12.980;2023-12-29T02:27:20;0.50;;;0.40;;
29200;SDS011;16244;51.956;12.980;2023-12-29T02:30:01;0.50;;;0.50;;
29200;SDS011;16244;51.956;12.980;2023-12-29T02:32:38;0.50;;;0.50;;
29200;SDS011;16244;51.956;12.980;2023-12-29T02:35:08;0.50;;;0.50;;
29200;SDS011;16244;51.956;12.980;2023-12-29T02:37:38;0.50;;;0.50;;
29200;SDS011;16244;51.956;12.980;2023-12-29T02:40:09;1.70;;;0.50;;
29200;SDS011;16244;51.956;12.980;2023-12-29T02:42:37;0.87;;;0.60;;
29200;SDS011;16244;51.956;12.980;2023-12-29T02:45:05;0.40;;;0.40;;
29200;SDS011;16244;51.956;12.980;2023-12-29T02:47:33;0.60;;;0.40;;
29200;SDS011;16244;51.956;12.980;2023-12-29T02:50:04;0.40;;;0.40;;
29200;SDS011;16244;51.956;12.980;2023-12-29T02:52:32;0.40;;;0.40;;
29200;SDS011;16244;51.956;12.980;2023-12-29T02:55:02;0.90;;;0.83;;
29200;SDS011;16244;51.956;12.980;2023-12-29T02:57:32;0.50;;;0.50;;
29200;SDS011;16244;51.956;12.980;2023-12-29T03:00:00;0.40;;;0.40;;
29200;SDS011;16244;51.956;12.980;2023-12-29T03:02:27;0.40;;;0.40;;
29200;SDS011;16244;51.956;12.980;2023-12-29T03:04:55;0.37;;;0.37;;
29200;SDS011;16244;51.956;12.980;2023-12-29T03:07:23;0.40;;;0.40;;
29200;SDS011;16244;51.956;12.980;2023-12-29T03:09:52;0.63;;;0.50;;
29200;SDS011;16244;51.956;12.980;2023-12-29T03:12:22;0.40;;;0.40;;
29200;SDS011;16244;51.956;12.980;2023-12-29T03:14:53;2.50;;;0.60;;
29200;SDS011;16244;51.956;12.980;2023-12-29T03:17:23;0.50;;;0.50;;
29200;SDS011;16244;51.956;12.980;2023-12-29T03:19:51;0.50;;;0.50;;
29200;SDS011;16244;51.956;12.980;2023-12-29T03:22:19;0.60;;;0.60;;
29200;SDS011;16244;51.956;12.980;2023-12-29T03:24:47;0.50;;;0.50;;
29200;SDS011;16244;51.956;12.980;2023-12-29T03:27:15;0.47;;;0.47;;
29200;SDS011;16244;51.956;12.980;2023-12-29T03:29:45;0.50;;;0.50;;
29200;SDS011;16244;51.956;12.980;2023-12-29T03:32:15;0.40;;;0.40;;
29200;SDS011;16244;51.956;12.980;2023-12-29T03:34:45;0.37;;;0.37;;
29200;SDS011;16244;51.956;12.980;2023-12-29T03:37:12;1.13;;;0.50;;
29200;SDS011;16244;51.956;12.980;2023-12-29T03:39:40;0.70;;;0.70;;
29200;SDS011;16244;51.956;12.980;2023-12-29T03:42:10;2.97;;;0.40;;
29200;SDS011;16244;51.956;12.980;2023-12-29T03:44:38;0.30;;;0.30;;
29200;SDS011;16244;51.956;12.980;2023-12-29T03:47:05;0.40;;;0.40;;
29200;SDS011;16244;51.956;12.980;2023-12-29T03:49:34;0.40;;;0.40;;
29200;SDS011;16244;51.956;12.980;2023-12-29T03:52:02;0.30;;;0.30;;
29200;SDS011;16244;51.956;12.980;2023-12-29T03:54:31;0.37;;;0.37;;
29200;SDS011;16244;51.956;12.980;2023-12-29T03:57:01;0.30;;;0.30;;
29200;SDS011;16244;51.956;12.980;2023-12-29T03:59:29;1.43;;;0.30;;
29200;SDS011;16244;51.956;12.980;2023-12-29T04:01:57;0.47;;;0.47;;
29200;SDS011;16244;51.956;12.980;2023-12-29T04:04:31;0.30;;;0.30;;
29200;SDS011;16244;51.956;12.980;2023-12-29T04:07:00;0.30;;;0.30;;
29200;SDS011;16244;51.956;12.980;2023-12-29T04:09:28;0.40;;;0.40;;
29200;SDS011;16244;51.956;12.980;2023-12-29T04:11:57;0.30;;;0.30;;
29200;SDS011;16244;51.956;12.980;2023-12-29T04:14:25;0.30;;;0.30;;
29200;SDS011;16244;51.956;12.980;2023-12-29T04:16:53;0.30;;;0.30;;
29200;SDS011;16244;51.956;12.980;2023-12-29T04:19:21;1.90;;;0.30;;
29200;SDS011;16244;51.956;12.980;2023-12-29T04:21:49;0.60;;;0.30;;
29200;SDS011;16244;51.956;12.980;2023-12-29T04:24:19;0.70;;;0.30;;
29200;SDS011;16244;51.956;12.980;2023-12-29T04:26:47;0.40;;;0.40;;
29200;SDS011;16244;51.956;12.980;2023-12-29T04:29:14;0.40;;;0.40;;
29200;SDS011;16244;51.956;12.980;2023-12-29T04:31:41;1.07;;;0.30;;
29200;SDS011;16244;51.956;12.980;2023-12-29T04:34:09;0.30;;;0.30;;
29200;SDS011;16244;51.956;12.980;2023-12-29T04:36:36;0.40;;;0.40;;
29200;SDS011;16244;51.956;12.980;2023-12-29T04:39:04;0.30;;;0.30;;
29200;SDS011;16244;51.956;12.980;2023-12-29T04:41:33;0.30;;;0.30;;
29200;SDS011;16244;51.956;12.980;2023-12-29T04:44:00;0.30;;;0.30;;
29200;SDS011;16244;51.956;12.980;2023-12-29T04:46:28;0.30;;;0.30;;
29200;SDS011;16244;51.956;12.980;2023-12-29T04:48:55;0.30;;;0.30;;
29200;SDS011;16244;51.956;12.980;2023-12-29T04:51:22;0.30;;;0.30;;
29200;SDS011;16244;51.956;12.980;2023-12-29T04:53:50;0.40;;;0.40;;
29200;SDS011;16244;51.956;12.980;2023-12-29T04:56:18;0.30;;;0.30;;
29200;SDS011;16244;51.956;12.980;2023-12-29T04:58:46;0.40;;;0.40;;
29200;SDS011;16244;51.956;12.980;2023-12-29T05:01:14;3.33;;;0.40;;
29200;SDS011;16244;51.956;12.980;2023-12-29T05:03:41;0.30;;;0.30;;
29200;SDS011;16244;51.956;12.980;2023-12-29T05:06:09;0.37;;;0.37;;
29200;SDS011;16244;51.956;12.980;2023-12-29T05:08:36;0.30;;;0.30;;
29200;SDS011;16244;51.956;12.980;2023-12-29T05:11:04;0.30;;;0.30;;
29200;SDS011;16244;51.956;12.980;2023-12-29T05:13:31;2.17;;;0.40;;
29200;SDS011;16244;51.956;12.980;2023-12-29T05:16:00;0.40;;;0.40;;
29200;SDS011;16244;51.956;12.980;2023-12-29T05:18:29;0.40;;;0.40;;
29200;SDS011;16244;51.956;12.980;2023-12-29T05:20:57;0.50;;;0.50;;
29200;SDS011;16244;51.956;12.980;2023-12-29T05:23:24;0.70;;;0.30;;
29200;SDS011;16244;51.956;12.980;2023-12-29T05:25:52;0.30;;;0.30;;
29200;SDS011;16244;51.956;12.980;2023-12-29T05:28:20;0.40;;;0.40;;
29200;SDS011;16244;51.956;12.980;2023-12-29T05:30:47;0.40;;;0.40;;
29200;SDS011;16244;51.956;12.980;2023-12-29T05:33:16;0.60;;;0.40;;
29200;SDS011;16244;51.956;12.980;2023-12-29T05:35:44;0.43;;;0.43;;
29200;SDS011;16244;51.956;12.980;2023-12-29T05:38:11;0.60;;;0.50;;
29200;SDS011;16244;51.956;12.980;2023-12-29T05:40:39;0.40;;;0.40;;
29200;SDS011;16244;51.956;12.980;2023-12-29T05:43:06;5.37;;;0.37;;
29200;SDS011;16244;51.956;12.980;2023-12-29T05:45:34;0.70;;;0.50;;
29200;SDS011;16244;51.956;12.980;2023-12-29T05:48:01;0.40;;;0.40;;
29200;SDS011;16244;51.956;12.980;2023-12-29T05:50:30;0.93;;;0.40;;
29200;SDS011;16244;51.956;12.980;2023-12-29T05:52:57;1.57;;;0.30;;
29200;SDS011;16244;51.956;12.980;2023-12-29T05:55:25;0.30;;;0.30;;
29200;SDS011;16244;51.956;12.980;2023-12-29T05:57:52;0.63;;;0.40;;
29200;SDS011;16244;51.956;12.980;2023-12-29T06:00:20;3.10;;;0.50;;
29200;SDS011;16244;51.956;12.980;2023-12-29T06:02:47;0.40;;;0.40;;
29200;SDS011;16244;51.956;12.980;2023-12-29T06:05:15;1.57;;;0.40;;
29200;SDS011;16244;51.956;12.980;2023-12-29T06:07:44;0.40;;;0.40;;
29200;SDS011;16244;51.956;12.980;2023-12-29T06:10:11;9.20;;;1.07;;
29200;SDS011;16244;51.956;12.980;2023-12-29T06:12:39;0.60;;;0.50;;
29200;SDS011;16244;51.956;12.980;2023-12-29T06:15:07;1.70;;;0.40;;
29200;SDS011;16244;51.956;12.980;2023-12-29T06:17:35;0.33;;;0.33;;
29200;SDS011;16244;51.956;12.980;2023-12-29T06:20:02;0.50;;;0.40;;
29200;SDS011;16244;51.956;12.980;2023-12-29T06:22:32;0.50;;;0.50;;
29200;SDS011;16244;51.956;12.980;2023-12-29T06:25:01;0.40;;;0.40;;
29200;SDS011;16244;51.956;12.980;2023-12-29T06:27:28;2.00;;;0.70;;
29200;SDS011;16244;51.956;12.980;2023-12-29T06:29:58;0.40;;;0.40;;
29200;SDS011;16244;51.956;12.980;2023-12-29T06:32:25;1.43;;;0.60;;
29200;SDS011;16244;51.956;12.980;2023-12-29T06:34:53;0.40;;;0.40;;
29200;SDS011;16244;51.956;12.980;2023-12-29T06:37:20;0.40;;;0.40;;
29200;SDS011;16244;51.956;12.980;2023-12-29T06:39:48;0.70;;;0.40;;
29200;SDS011;16244;51.956;12.980;2023-12-29T06:42:17;0.40;;;0.40;;
29200;SDS011;16244;51.956;12.980;2023-12-29T06:44:45;0.53;;;0.50;;
29200;SDS011;16244;51.956;12.980;2023-12-29T06:47:13;0.30;;;0.30;;
29200;SDS011;16244;51.956;12.980;2023-12-29T06:49:40;0.60;;;0.60;;
29200;SDS011;16244;51.956;12.980;2023-12-29T06:52:08;0.40;;;0.40;;
29200;SDS011;16244;51.956;12.980;2023-12-29T06:54:35;1.53;;;0.50;;
29200;SDS011;16244;51.956;12.980;2023-12-29T06:57:03;5.00;;;0.57;;
29200;SDS011;16244;51.956;12.980;2023-12-29T06:59:32;0.87;;;0.50;;
29200;SDS011;16244;51.956;12.980;2023-12-29T07:02:00;0.40;;;0.40;;
29200;SDS011;16244;51.956;12.980;2023-12-29T07:04:27;0.80;;;0.60;;
29200;SDS011;16244;51.956;12.980;2023-12-29T07:06:55;1.27;;;0.40;;
29200;SDS011;16244;51.956;12.980;2023-12-29T07:09:22;0.30;;;0.30;;
29200;SDS011;16244;51.956;12.980;2023-12-29T07:11:50;0.30;;;0.30;;
29200;SDS011;16244;51.956;12.980;2023-12-29T07:14:18;0.47;;;0.47;;
29200;SDS011;16244;51.956;12.980;2023-12-29T07:16:46;0.40;;;0.40;;
29200;SDS011;16244;51.956;12.980;2023-12-29T07:19:14;0.40;;;0.40;;
29200;SDS011;16244;51.956;12.980;2023-12-29T07:21:41;0.70;;;0.43;;
29200;SDS011;16244;51.956;12.980;2023-12-29T07:24:10;4.83;;;1.63;;
29200;SDS011;16244;51.956;12.980;2023-12-29T07:26:39;1.13;;;0.40;;
29200;SDS011;16244;51.956;12.980;2023-12-29T07:29:06;0.40;;;0.40;;
29200;SDS011;16244;51.956;12.980;2023-12-29T07:31:37;1.80;;;0.50;;
29200;SDS011;16244;51.956;12.980;2023-12-29T07:34:06;0.50;;;0.50;;
29200;SDS011;16244;51.956;12.980;2023-12-29T07:36:37;0.50;;;0.50;;
29200;SDS011;16244;51.956;12.980;2023-12-29T07:39:05;0.60;;;0.60;;
29200;SDS011;16244;51.956;12.980;2023-12-29T07:41:33;0.60;;;0.60;;
29200;SDS011;16244;51.956;12.980;2023-12-29T07:44:01;0.77;;;0.77;;
29200;SDS011;16244;51.956;12.980;2023-12-29T07:46:28;0.53;;;0.53;;
29200;SDS011;16244;51.956;12.980;2023-12-29T07:48:56;0.60;;;0.60;;
29200;SDS011;16244;51.956;12.980;2023-12-29T07:51:25;4.03;;;1.00;;
29200;SDS011;16244;51.956;12.980;2023-12-29T07:53:52;1.03;;;1.03;;
29200;SDS011;16244;51.956;12.980;2023-12-29T07:56:19;0.70;;;0.70;;
29200;SDS011;16244;51.956;12.980;2023-12-29T07:58:47;2.70;;;1.00;;
29200;SDS011;16244;51.956;12.980;2023-12-29T08:01:15;0.60;;;0.60;;
29200;SDS011;16244;51.956;12.980;2023-12-29T08:03:42;0.50;;;0.50;;
29200;SDS011;16244;51.956;12.980;2023-12-29T08:06:09;0.63;;;0.63;;
29200;SDS011;16244;51.956;12.980;2023-12-29T08:08:39;1.03;;;0.50;;
29200;SDS011;16244;51.956;12.980;2023-12-29T08:11:12;1.80;;;0.90;;
29200;SDS011;16244;51.956;12.980;2023-12-29T08:13:40;0.87;;;0.60;;
29200;SDS011;16244;51.956;12.980;2023-12-29T08:16:07;0.70;;;0.70;;
29200;SDS011;16244;51.956;12.980;2023-12-29T08:18:35;0.70;;;0.70;;
29200;SDS011;16244;51.956;12.980;2023-12-29T08:21:02;0.70;;;0.70;;
29200;SDS011;16244;51.956;12.980;2023-12-29T08:23:30;3.23;;;0.70;;
29200;SDS011;16244;51.956;12.980;2023-12-29T08:25:59;1.57;;;0.67;;
29200;SDS011;16244;51.956;12.980;2023-12-29T08:28:29;7.23;;;3.40;;
29200;SDS011;16244;51.956;12.980;2023-12-29T08:30:56;4.23;;;3.93;;
29200;SDS011;16244;51.956;12.980;2023-12-29T08:33:23;3.23;;;1.80;;
29200;SDS011;16244;51.956;12.980;2023-12-29T08:35:51;3.33;;;0.90;;
29200;SDS011;16244;51.956;12.980;2023-12-29T08:38:18;0.70;;;0.67;;
29200;SDS011;16244;51.956;12.980;2023-12-29T08:40:46;0.47;;;0.47;;
29200;SDS011;16244;51.956;12.980;2023-12-29T08:43:15;2.40;;;0.57;;
29200;SDS011;16244;51.956;12.980;2023-12-29T08:45:46;0.93;;;0.40;;
29200;SDS011;16244;51.956;12.980;2023-12-29T08:48:14;0.50;;;0.50;;
29200;SDS011;16244;51.956;12.980;2023-12-29T08:50:42;0.60;;;0.50;;
29200;SDS011;16244;51.956;12.980;2023-12-29T08:53:09;1.03;;;0.40;;
29200;SDS011;16244;51.956;12.980;2023-12-29T08:55:37;0.37;;;0.37;;
29200;SDS011;16244;51.956;12.980;2023-12-29T08:58:05;2.20;;;0.50;;
29200;SDS011;16244;51.956;12.980;2023-12-29T09:00:38;0.50;;;0.50;;
29200;SDS011;16244;51.956;12.980;2023-12-29T09:03:05;5.30;;;0.40;;
29200;SDS011;16244;51.956;12.980;2023-12-29T09:05:34;0.80;;;0.40;;
29200;SDS011;16244;51.956;12.980;2023-12-29T09:08:02;0.97;;;0.30;;
29200;SDS011;16244;51.956;12.980;2023-12-29T09:10:30;2.10;;;0.60;;
29200;SDS011;16244;51.956;12.980;2023-12-29T09:12:57;3.77;;;0.50;;
29200;SDS011;16244;51.956;12.980;2023-12-29T09:15:25;0.40;;;0.40;;
29200;SDS011;16244;51.956;12.980;2023-12-29T09:17:54;3.10;;;0.50;;
29200;SDS011;16244;51.956;12.980;2023-12-29T09:20:21;0.40;;;0.40;;
29200;SDS011;16244;51.956;12.980;2023-12-29T09:22:50;0.63;;;0.63;;
29200;SDS011;16244;51.956;12.980;2023-12-29T09:25:19;0.50;;;0.50;;
29200;SDS011;16244;51.956;12.980;2023-12-29T09:27:47;0.50;;;0.50;;
29200;SDS011;16244;51.956;12.980;2023-12-29T09:30:15;0.90;;;0.40;;
29200;SDS011;16244;51.956;12.980;2023-12-29T09:32:43;0.50;;;0.50;;
29200;SDS011;16244;51.956;12.980;2023-12-29T09:35:12;2.73;;;0.70;;
29200;SDS011;16244;51.956;12.980;2023-12-29T09:37:39;0.60;;;0.60;;
29200;SDS011;16244;51.956;12.980;2023-12-29T09:40:07;0.40;;;0.40;;
29200;SDS011;16244;51.956;12.980;2023-12-29T09:42:38;0.50;;;0.50;;
29200;SDS011;16244;51.956;12.980;2023-12-29T09:45:06;0.60;;;0.50;;
29200;SDS011;16244;51.956;12.980;2023-12-29T09:47:38;1.23;;;0.50;;
29200;SDS011;16244;51.956;12.980;2023-12-29T09:50:07;3.50;;;0.40;;
29200;SDS011;16244;51.956;12.980;2023-12-29T09:52:38;4.40;;;0.50;;
29200;SDS011;16244;51.956;12.980;2023-12-29T09:55:08;0.77;;;0.60;;
29200;SDS011;16244;51.956;12.980;2023-12-29T09:57:37;1.33;;;0.53;;
29200;SDS011;16244;51.956;12.980;2023-12-29T10:00:05;0.60;;;0.60;;
29200;SDS011;16244;51.956;12.980;2023-12-29T10:02:36;1.20;;;0.50;;
29200;SDS011;16244;51.956;12.980;2023-12-29T10:05:05;0.93;;;0.40;;
29200;SDS011;16244;51.956;12.980;2023-12-29T10:07:35;1.53;;;0.47;;
29200;SDS011;16244;51.956;12.980;2023-12-29T10:10:05;0.53;;;0.47;;
29200;SDS011;16244;51.956;12.980;2023-12-29T10:12:34;0.50;;;0.50;;
29200;SDS011;16244;51.956;12.980;2023-12-29T10:15:05;0.40;;;0.40;;
29200;SDS011;16244;51.956;12.980;2023-12-29T10:17:36;0.50;;;0.50;;
29200;SDS011;16244;51.956;12.980;2023-12-29T10:20:15;0.70;;;0.43;;
29200;SDS011;16244;51.956;12.980;2023-12-29T10:22:54;0.57;;;0.50;;
29200;SDS011;16244;51.956;12.980;2023-12-29T10:25:31;0.60;;;0.57;;
29200;SDS011;16244;51.956;12.980;2023-12-29T10:27:59;0.50;;;0.50;;
29200;SDS011;16244;51.956;12.980;2023-12-29T10:30:28;0.97;;;0.70;;
29200;SDS011;16244;51.956;12.980;2023-12-29T10:32:57;0.40;;;0.40;;
29200;SDS011;16244;51.956;12.980;2023-12-29T10:35:26;1.60;;;0.50;;
29200;SDS011;16244;51.956;12.980;2023-12-29T10:37:55;0.43;;;0.43;;
29200;SDS011;16244;51.956;12.980;2023-12-29T10:40:35;1.33;;;0.73;;
29200;SDS011;16244;51.956;12.980;2023-12-29T10:43:03;5.13;;;0.70;;
29200;SDS011;16244;51.956;12.980;2023-12-29T10:45:33;2.50;;;0.50;;
29200;SDS011;16244;51.956;12.980;2023-12-29T10:48:02;0.90;;;0.47;;
29200;SDS011;16244;51.956;12.980;2023-12-29T10:50:30;1.43;;;0.40;;
29200;SDS011;16244;51.956;12.980;2023-12-29T10:53:13;0.47;;;0.47;;
29200;SDS011;16244;51.956;12.980;2023-12-29T10:55:42;1.80;;;0.50;;
29200;SDS011;16244;51.956;12.980;2023-12-29T10:58:10;0.70;;;0.70;;
29200;SDS011;16244;51.956;12.980;2023-12-29T11:00:37;1.30;;;0.50;;
29200;SDS011;16244;51.956;12.980;2023-12-29T11:03:05;0.80;;;0.50;;
29200;SDS011;16244;51.956;12.980;2023-12-29T11:05:32;0.50;;;0.50;;
29200;SDS011;16244;51.956;12.980;2023-12-29T11:08:01;5.20;;;1.07;;
29200;SDS011;16244;51.956;12.980;2023-12-29T11:10:43;0.40;;;0.40;;
29200;SDS011;16244;51.956;12.980;2023-12-29T11:13:14;0.50;;;0.50;;
29200;SDS011;16244;51.956;12.980;2023-12-29T11:15:42;0.77;;;0.40;;
29200;SDS011;16244;51.956;12.980;2023-12-29T11:18:11;1.17;;;0.70;;
29200;SDS011;16244;51.956;12.980;2023-12-29T11:20:41;2.43;;;0.53;;
29200;SDS011;16244;51.956;12.980;2023-12-29T11:23:10;1.10;;;1.10;;
29200;SDS011;16244;51.956;12.980;2023-12-29T11:25:40;2.10;;;0.40;;
29200;SDS011;16244;51.956;12.980;2023-12-29T11:28:11;0.70;;;0.50;;
29200;SDS011;16244;51.956;12.980;2023-12-29T11:30:39;0.40;;;0.40;;
29200;SDS011;16244;51.956;12.980;2023-12-29T11:33:08;0.50;;;0.50;;
29200;SDS011;16244;51.956;12.980;2023-12-29T11:35:40;0.40;;;0.40;;
29200;SDS011;16244;51.956;12.980;2023-12-29T11:38:17;0.33;;;0.33;;
29200;SDS011;16244;51.956;12.980;2023-12-29T11:40:56;0.50;;;0.50;;
29200;SDS011;16244;51.956;12.980;2023-12-29T11:43:30;0.40;;;0.40;;
29200;SDS011;16244;51.956;12.980;2023-12-29T11:45:58;0.40;;;0.40;;
29200;SDS011;16244;51.956;12.980;2023-12-29T11:51:27;0.40;;;0.40;;
29200;SDS011;16244;51.956;12.980;2023-12-29T11:53:55;0.53;;;0.40;;
29200;SDS011;16244;51.956;12.980;2023-12-29T11:56:24;0.40;;;0.40;;
29200;SDS011;16244;51.956;12.980;2023-12-29T11:59:06;0.53;;;0.53;;
29200;SDS011;16244;51.956;12.980;2023-12-29T12:01:39;0.33;;;0.33;;
29200;SDS011;16244;51.956;12.980;2023-12-29T12:07:06;2.53;;;0.60;;
29200;SDS011;16244;51.956;12.980;2023-12-29T12:09:35;4.30;;;1.03;;
29200;SDS011;16244;51.956;12.980;2023-12-29T12:12:04;0.77;;;0.77;;
29200;SDS011;16244;51.956;12.980;2023-12-29T12:14:45;1.57;;;0.80;;
29200;SDS011;16244;51.956;12.980;2023-12-29T12:17:27;1.60;;;0.97;;
29200;SDS011;16244;51.956;12.980;2023-12-29T12:19:56;1.07;;;0.70;;
29200;SDS011;16244;51.956;12.980;2023-12-29T12:22:25;0.60;;;0.60;;
29200;SDS011;16244;51.956;12.980;2023-12-29T12:24:56;0.50;;;0.50;;
29200;SDS011;16244;51.956;12.980;2023-12-29T12:27:26;5.03;;;0.70;;
29200;SDS011;16244;51.956;12.980;2023-12-29T12:29:54;0.80;;;0.60;;
29200;SDS011;16244;51.956;12.980;2023-12-29T12:32:23;0.50;;;0.50;;
29200;SDS011;16244;51.956;12.980;2023-12-29T12:34:51;0.60;;;0.60;;
29200;SDS011;16244;51.956;12.980;2023-12-29T12:37:19;1.87;;;0.60;;
29200;SDS011;16244;51.956;12.980;2023-12-29T12:39:48;0.60;;;0.60;;
29200;SDS011;16244;51.956;12.980;2023-12-29T12:42:16;0.40;;;0.40;;
29200;SDS011;16244;51.956;12.980;2023-12-29T12:44:49;1.80;;;0.40;;
29200;SDS011;16244;51.956;12.980;2023-12-29T12:47:24;0.50;;;0.50;;
29200;SDS011;16244;51.956;12.980;2023-12-29T12:49:58;0.70;;;0.70;;
29200;SDS011;16244;51.956;12.980;2023-12-29T12:52:29;0.40;;;0.40;;
29200;SDS011;16244;51.956;12.980;2023-12-29T12:54:58;0.40;;;0.40;;
29200;SDS011;16244;51.956;12.980;2023-12-29T12:57:25;0.40;;;0.40;;
29200;SDS011;16244;51.956;12.980;2023-12-29T12:59:54;1.70;;;0.53;;
29200;SDS011;16244;51.956;12.980;2023-12-29T13:02:23;0.90;;;0.40;;
29200;SDS011;16244;51.956;12.980;2023-12-29T13:04:52;0.40;;;0.40;;
29200;SDS011;16244;51.956;12.980;2023-12-29T13:07:20;0.37;;;0.37;;
29200;SDS011;16244;51.956;12.980;2023-12-29T13:09:49;0.40;;;0.40;;
29200;SDS011;16244;51.956;12.980;2023-12-29T13:12:18;1.17;;;0.40;;
29200;SDS011;16244;51.956;12.980;2023-12-29T13:14:46;2.40;;;0.40;;
29200;SDS011;16244;51.956;12.980;2023-12-29T13:17:17;1.80;;;0.40;;
29200;SDS011;16244;51.956;12.980;2023-12-29T13:19:55;0.77;;;0.47;;
29200;SDS011;16244;51.956;12.980;2023-12-29T13:22:24;0.67;;;0.37;;
29200;SDS011;16244;51.956;12.980;2023-12-29T13:24:53;0.40;;;0.40;;
29200;SDS011;16244;51.956;12.980;2023-12-29T13:27:22;0.30;;;0.30;;
29200;SDS011;16244;51.956;12.980;2023-12-29T13:29:50;1.63;;;0.47;;
29200;SDS011;16244;51.956;12.980;2023-12-29T13:32:20;1.63;;;0.40;;
29200;SDS011;16244;51.956;12.980;2023-12-29T13:34:53;0.40;;;0.40;;
29200;SDS011;16244;51.956;12.980;2023-12-29T13:37:30;2.10;;;0.40;;
29200;SDS011;16244;51.956;12.980;2023-12-29T13:40:02;0.40;;;0.40;;
29200;SDS011;16244;51.956;12.980;2023-12-29T13:42:38;0.50;;;0.40;;
29200;SDS011;16244;51.956;12.980;2023-12-29T13:45:10;0.43;;;0.43;;
29200;SDS011;16244;51.956;12.980;2023-12-29T13:47:40;0.50;;;0.50;;
29200;SDS011;16244;51.956;12.980;2023-12-29T13:50:09;0.50;;;0.50;;
29200;SDS011;16244;51.956;12.980;2023-12-29T13:52:37;1.47;;;0.50;;
29200;SDS011;16244;51.956;12.980;2023-12-29T13:55:05;0.30;;;0.30;;
29200;SDS011;16244;51.956;12.980;2023-12-29T13:57:33;0.40;;;0.40;;
29200;SDS011;16244;51.956;12.980;2023-12-29T14:00:16;4.50;;;0.50;;
29200;SDS011;16244;51.956;12.980;2023-12-29T14:02:47;3.90;;;0.50;;
29200;SDS011;16244;51.956;12.980;2023-12-29T14:05:23;0.40;;;0.40;;
29200;SDS011;16244;51.956;12.980;2023-12-29T14:07:54;0.40;;;0.40;;
29200;SDS011;16244;51.956;12.980;2023-12-29T14:10:30;0.40;;;0.40;;
29200;SDS011;16244;51.956;12.980;2023-12-29T14:13:03;0.40;;;0.40;;
29200;SDS011;16244;51.956;12.980;2023-12-29T14:15:34;1.60;;;0.40;;
29200;SDS011;16244;51.956;12.980;2023-12-29T14:18:06;0.40;;;0.40;;
29200;SDS011;16244;51.956;12.980;2023-12-29T14:20:49;0.97;;;0.33;;
29200;SDS011;16244;51.956;12.980;2023-12-29T14:23:17;0.47;;;0.47;;
29200;SDS011;16244;51.956;12.980;2023-12-29T14:25:45;0.40;;;0.30;;
29200;SDS011;16244;51.956;12.980;2023-12-29T14:28:14;0.40;;;0.40;;
29200;SDS011;16244;51.956;12.980;2023-12-29T14:30:42;0.40;;;0.40;;
29200;SDS011;16244;51.956;12.980;2023-12-29T14:33:12;0.50;;;0.50;;
29200;SDS011;16244;51.956;12.980;2023-12-29T14:35:39;0.80;;;0.40;;
29200;SDS011;16244;51.956;12.980;2023-12-29T14:38:07;0.50;;;0.50;;
29200;SDS011;16244;51.956;12.980;2023-12-29T14:40:36;0.40;;;0.40;;
29200;SDS011;16244;51.956;12.980;2023-12-29T14:43:04;0.30;;;0.30;;
29200;SDS011;16244;51.956;12.980;2023-12-29T14:45:32;0.40;;;0.40;;
29200;SDS011;16244;51.956;12.980;2023-12-29T14:47:59;0.40;;;0.40;;
29200;SDS011;16244;51.956;12.980;2023-12-29T14:50:28;0.40;;;0.40;;